Detalii statie SOMALEX GHIMPATI [0000198E]

Toti senzorii

Date Temperatura solului [C]Precipitatii [mm]Voltaj baterie [mV]Leaf Wetness [Min]HC Air temperature [C]HC Relative humidity [%]Punctul de roua [C]
medieminmaxsumaultimatimpmedieminmaxmediemediemin
2018-12-09 16:00:00 3 3 3 0 6854 3.03 2.99 3.07 100 2.9 2.9
2018-12-09 16:10:00 3 3 3 0 6826 2.83 2.78 2.89 100 2.7 2.7
2018-12-09 16:20:00 2.9 2.8 3 0 6834 2.55 2.43 2.68 100 2.5 2.4
2018-12-09 16:30:00 3 3 3 0 6834 2.19 2.17 2.21 100 2.1 2.1
2018-12-09 16:40:00 3 3 3 0 6834 2.13 2.12 2.15 100 2.1 2.1
2018-12-09 16:50:00 3 3 3 0 6834 2.07 2.06 2.08 100 2 2
2018-12-09 17:00:00 2.9 2.9 3 0 6834 1.97 1.95 1.99 100 1.9 1.9
2018-12-09 17:10:00 2.9 2.9 2.9 0 6796 1.69 1.64 1.75 100 1.6 1.6
2018-12-09 17:20:00 2.9 2.9 2.9 0 6816 1.33 1.24 1.42 100 1.3 1.2
2018-12-09 17:30:00 2.9 2.9 2.9 0 6816 0.92 0.9 0.94 100 0.9 0.9
2018-12-09 17:40:00 2.8 2.8 2.8 0 6786 0.97 0.91 1.04 100 0.9 0.9
2018-12-09 17:50:00 2.8 2.8 2.8 0 6796 0.94 0.9 0.98 100 0.9 0.9
2018-12-09 18:00:00 2.7 2.7 2.8 0 6806 1.15 1.09 1.22 100 1.1 1
2018-12-09 18:10:00 2.6 2.6 2.6 0 6806 1.1 1.07 1.13 100 1 1
2018-12-09 18:20:00 2.7 2.7 2.7 0 6786 1.06 0.92 1.2 100 1 0.9
2018-12-09 18:30:00 2.7 2.7 2.7 0 6796 1.72 1.53 1.91 100 1.7 1.5
2018-12-09 18:40:00 2.6 2.6 2.7 0 6796 2.07 2.07 2.07 100 2 2
2018-12-09 18:50:00 2.5 2.5 2.6 0 6806 1.91 1.84 1.99 100 1.8 1.8
2018-12-09 19:00:00 2.5 2.5 2.5 0 6796 1.8 1.8 1.8 100 1.8 1.8
2018-12-09 19:10:00 2.5 2.5 2.6 0 6776 1.72 1.67 1.77 100 1.6 1.6
2018-12-09 19:20:00 2.5 2.5 2.5 0 6786 1.45 1.34 1.56 100 1.4 1.3
2018-12-09 19:30:00 2.5 2.5 2.5 0 6786 1.11 1.06 1.16 100 1 1
2018-12-09 19:40:00 2.5 2.5 2.6 0 6796 1.02 0.99 1.05 100 0.9 0.9
2018-12-09 19:50:00 2.4 2.4 2.5 0 6796 1.26 1.17 1.35 100 1.2 1.1
2018-12-09 20:00:00 2.4 2.4 2.4 0 6796 1.4 1.39 1.41 100 1.3 1.3
2018-12-09 20:10:00 2.5 2.4 2.6 0 6766 1.45 1.44 1.47 100 1.4 1.4
2018-12-09 20:20:00 2.5 2.5 2.6 0 6786 1.78 1.58 1.98 100 1.7 1.5
2018-12-09 20:30:00 2.4 2.4 2.5 0 6786 1.97 1.95 1.99 100 1.9 1.9
2018-12-09 20:40:00 2.4 2.4 2.5 0 6786 1.9 1.9 1.91 100 1.9 1.9
2018-12-09 20:50:00 2.4 2.4 2.5 0 6796 2.11 2.11 2.12 100 2.1 2.1
2018-12-09 21:00:00 2.4 2.4 2.5 0 6786 2.13 2.06 2.2 100 2.1 2
2018-12-09 21:10:00 2.5 2.5 2.5 0 6766 2.26 2.21 2.31 100 2.2 2.2
2018-12-09 21:20:00 2.4 2.3 2.5 0 6786 2.28 2.25 2.32 100 2.2 2.2
2018-12-09 21:30:00 2.5 2.5 2.5 0 6786 2.43 2.36 2.5 100 2.4 2.3
2018-12-09 21:40:00 2.5 2.5 2.5 0 6796 2.37 2.32 2.43 100 2.3 2.3
2018-12-09 21:50:00 2.4 2.4 2.4 0 6796 2.38 2.33 2.44 100 2.3 2.3
2018-12-09 22:00:00 2.4 2.4 2.4 0 6786 2.58 2.55 2.62 100 2.5 2.5
2018-12-09 22:10:00 2.4 2.4 2.4 0 6766 2.66 2.65 2.67 100 2.6 2.6
2018-12-09 22:20:00 2.4 2.4 2.4 0 6776 2.68 2.68 2.69 100 2.6 2.6
2018-12-09 22:30:00 2.4 2.4 2.5 0 6786 2.71 2.71 2.72 100 2.7 2.7
2018-12-09 22:40:00 2.4 2.4 2.5 0 6786 2.73 2.72 2.74 100 2.7 2.7
2018-12-09 22:50:00 2.4 2.4 2.4 0 6786 2.7 2.7 2.71 100 2.7 2.7
2018-12-09 23:00:00 2.5 2.5 2.5 0 6796 2.7 2.68 2.72 100 2.6 2.6
2018-12-09 23:10:00 2.4 2.4 2.5 0 6766 2.63 2.63 2.63 100 2.6 2.6
2018-12-09 23:20:00 2.4 2.4 2.4 0 6776 2.6 2.59 2.62 100 2.5 2.5
2018-12-09 23:30:00 2.4 2.4 2.4 0 6786 2.58 2.57 2.59 100 2.5 2.5
2018-12-09 23:40:00 2.5 2.5 2.5 0 6786 2.55 2.54 2.56 100 2.5 2.5
2018-12-09 23:50:00 2.4 2.4 2.5 0 6786 2.56 2.56 2.57 100 2.5 2.5